sensor_id;sensor_type;location;lat;lon;timestamp;P1;durP1;ratioP1;P2;durP2;ratioP2
43670;SDS011;29267;50.906;7.248;2024-02-23T00:01:14;0.95;;;0.95;;
43670;SDS011;29267;50.906;7.248;2024-02-23T00:03:40;2.83;;;0.52;;
43670;SDS011;29267;50.906;7.248;2024-02-23T00:06:06;1.88;;;0.30;;
43670;SDS011;29267;50.906;7.248;2024-02-23T00:08:31;0.63;;;0.30;;
43670;SDS011;29267;50.906;7.248;2024-02-23T00:10:57;0.15;;;0.15;;
43670;SDS011;29267;50.906;7.248;2024-02-23T00:13:22;0.65;;;0.22;;
43670;SDS011;29267;50.906;7.248;2024-02-23T00:15:48;0.82;;;0.30;;
43670;SDS011;29267;50.906;7.248;2024-02-23T00:18:13;3.88;;;0.43;;
43670;SDS011;29267;50.906;7.248;2024-02-23T00:20:41;0.30;;;0.25;;
43670;SDS011;29267;50.906;7.248;2024-02-23T00:23:06;1.08;;;0.47;;
43670;SDS011;29267;50.906;7.248;2024-02-23T00:25:32;0.45;;;0.20;;
43670;SDS011;29267;50.906;7.248;2024-02-23T00:27:57;0.50;;;0.35;;
43670;SDS011;29267;50.906;7.248;2024-02-23T00:30:23;2.40;;;0.30;;
43670;SDS011;29267;50.906;7.248;2024-02-23T00:32:48;0.30;;;0.15;;
43670;SDS011;29267;50.906;7.248;2024-02-23T00:35:14;1.45;;;0.35;;
43670;SDS011;29267;50.906;7.248;2024-02-23T00:37:39;0.22;;;0.20;;
43670;SDS011;29267;50.906;7.248;2024-02-23T00:40:05;4.30;;;0.20;;
43670;SDS011;29267;50.906;7.248;2024-02-23T00:42:31;0.43;;;0.10;;
43670;SDS011;29267;50.906;7.248;2024-02-23T00:44:57;1.23;;;0.10;;
43670;SDS011;29267;50.906;7.248;2024-02-23T00:47:23;0.30;;;0.20;;
43670;SDS011;29267;50.906;7.248;2024-02-23T00:49:48;0.22;;;0.20;;
43670;SDS011;29267;50.906;7.248;2024-02-23T00:52:14;0.25;;;0.17;;
43670;SDS011;29267;50.906;7.248;2024-02-23T00:54:40;0.22;;;0.15;;
43670;SDS011;29267;50.906;7.248;2024-02-23T00:57:06;1.55;;;0.10;;
43670;SDS011;29267;50.906;7.248;2024-02-23T00:59:31;0.35;;;0.10;;
43670;SDS011;29267;50.906;7.248;2024-02-23T01:01:57;1.08;;;0.30;;
43670;SDS011;29267;50.906;7.248;2024-02-23T01:04:23;0.85;;;0.10;;
43670;SDS011;29267;50.906;7.248;2024-02-23T01:06:48;1.02;;;0.30;;
43670;SDS011;29267;50.906;7.248;2024-02-23T01:09:14;0.20;;;0.10;;
43670;SDS011;29267;50.906;7.248;2024-02-23T01:11:41;0.10;;;0.10;;
43670;SDS011;29267;50.906;7.248;2024-02-23T01:14:07;0.20;;;0.10;;
43670;SDS011;29267;50.906;7.248;2024-02-23T01:16:32;1.48;;;0.20;;
43670;SDS011;29267;50.906;7.248;2024-02-23T01:18:58;2.08;;;0.52;;
43670;SDS011;29267;50.906;7.248;2024-02-23T01:21:23;0.10;;;0.10;;
43670;SDS011;29267;50.906;7.248;2024-02-23T01:23:49;0.50;;;0.28;;
43670;SDS011;29267;50.906;7.248;2024-02-23T01:26:14;0.30;;;0.13;;
43670;SDS011;29267;50.906;7.248;2024-02-23T01:28:40;0.10;;;0.10;;
43670;SDS011;29267;50.906;7.248;2024-02-23T01:31:10;1.13;;;0.20;;
43670;SDS011;29267;50.906;7.248;2024-02-23T01:33:37;2.30;;;0.30;;
43670;SDS011;29267;50.906;7.248;2024-02-23T01:36:03;0.13;;;0.10;;
43670;SDS011;29267;50.906;7.248;2024-02-23T01:38:30;0.20;;;0.17;;
43670;SDS011;29267;50.906;7.248;2024-02-23T01:40:57;0.43;;;0.15;;
43670;SDS011;29267;50.906;7.248;2024-02-23T01:43:26;1.67;;;0.22;;
43670;SDS011;29267;50.906;7.248;2024-02-23T01:45:51;0.13;;;0.10;;
43670;SDS011;29267;50.906;7.248;2024-02-23T01:48:18;1.95;;;0.40;;
43670;SDS011;29267;50.906;7.248;2024-02-23T01:50:44;0.40;;;0.10;;
43670;SDS011;29267;50.906;7.248;2024-02-23T01:53:10;1.73;;;0.20;;
43670;SDS011;29267;50.906;7.248;2024-02-23T01:55:38;0.28;;;0.20;;
43670;SDS011;29267;50.906;7.248;2024-02-23T01:58:05;3.15;;;0.77;;
43670;SDS011;29267;50.906;7.248;2024-02-23T02:00:31;0.80;;;0.15;;
43670;SDS011;29267;50.906;7.248;2024-02-23T02:02:57;0.60;;;0.15;;
43670;SDS011;29267;50.906;7.248;2024-02-23T02:05:22;1.00;;;0.30;;
43670;SDS011;29267;50.906;7.248;2024-02-23T02:07:49;2.15;;;0.38;;
43670;SDS011;29267;50.906;7.248;2024-02-23T02:10:19;1.27;;;0.30;;
43670;SDS011;29267;50.906;7.248;2024-02-23T02:12:45;2.72;;;0.30;;
43670;SDS011;29267;50.906;7.248;2024-02-23T02:15:11;4.47;;;0.40;;
43670;SDS011;29267;50.906;7.248;2024-02-23T02:17:37;1.33;;;0.43;;
43670;SDS011;29267;50.906;7.248;2024-02-23T02:20:03;0.75;;;0.17;;
43670;SDS011;29267;50.906;7.248;2024-02-23T02:22:34;1.10;;;0.32;;
43670;SDS011;29267;50.906;7.248;2024-02-23T02:25:00;3.88;;;0.40;;
43670;SDS011;29267;50.906;7.248;2024-02-23T02:27:26;1.35;;;0.20;;
43670;SDS011;29267;50.906;7.248;2024-02-23T02:29:51;3.40;;;0.60;;
43670;SDS011;29267;50.906;7.248;2024-02-23T02:32:17;3.92;;;0.70;;
43670;SDS011;29267;50.906;7.248;2024-02-23T02:34:43;1.45;;;0.40;;
43670;SDS011;29267;50.906;7.248;2024-02-23T02:37:08;1.67;;;0.45;;
43670;SDS011;29267;50.906;7.248;2024-02-23T02:39:34;0.82;;;0.28;;
43670;SDS011;29267;50.906;7.248;2024-02-23T02:42:00;2.85;;;0.38;;
43670;SDS011;29267;50.906;7.248;2024-02-23T02:44:26;1.30;;;0.30;;
43670;SDS011;29267;50.906;7.248;2024-02-23T02:46:55;3.60;;;0.32;;
43670;SDS011;29267;50.906;7.248;2024-02-23T02:49:21;5.88;;;0.57;;
43670;SDS011;29267;50.906;7.248;2024-02-23T02:51:47;0.73;;;0.32;;
43670;SDS011;29267;50.906;7.248;2024-02-23T02:54:12;7.15;;;1.20;;
43670;SDS011;29267;50.906;7.248;2024-02-23T02:56:44;3.15;;;0.30;;
43670;SDS011;29267;50.906;7.248;2024-02-23T02:59:11;1.08;;;0.32;;
43670;SDS011;29267;50.906;7.248;2024-02-23T03:01:37;5.68;;;0.22;;
43670;SDS011;29267;50.906;7.248;2024-02-23T03:04:02;0.82;;;0.20;;
43670;SDS011;29267;50.906;7.248;2024-02-23T03:06:28;0.65;;;0.40;;
43670;SDS011;29267;50.906;7.248;2024-02-23T03:08:53;5.97;;;0.60;;
43670;SDS011;29267;50.906;7.248;2024-02-23T03:11:19;9.48;;;0.65;;
43670;SDS011;29267;50.906;7.248;2024-02-23T03:13:44;1.75;;;0.38;;
43670;SDS011;29267;50.906;7.248;2024-02-23T03:16:16;2.95;;;0.30;;
43670;SDS011;29267;50.906;7.248;2024-02-23T03:18:43;3.67;;;0.57;;
43670;SDS011;29267;50.906;7.248;2024-02-23T03:21:08;1.88;;;0.43;;
43670;SDS011;29267;50.906;7.248;2024-02-23T03:23:35;2.42;;;0.43;;
43670;SDS011;29267;50.906;7.248;2024-02-23T03:26:01;2.90;;;0.30;;
43670;SDS011;29267;50.906;7.248;2024-02-23T03:28:27;3.20;;;0.22;;
43670;SDS011;29267;50.906;7.248;2024-02-23T03:30:52;4.20;;;0.80;;
43670;SDS011;29267;50.906;7.248;2024-02-23T03:33:18;2.88;;;0.60;;
43670;SDS011;29267;50.906;7.248;2024-02-23T03:35:43;3.35;;;0.30;;
43670;SDS011;29267;50.906;7.248;2024-02-23T03:38:09;2.35;;;0.70;;
43670;SDS011;29267;50.906;7.248;2024-02-23T03:40:35;4.38;;;0.28;;
43670;SDS011;29267;50.906;7.248;2024-02-23T03:43:01;2.10;;;0.50;;
43670;SDS011;29267;50.906;7.248;2024-02-23T03:45:27;1.10;;;0.35;;
43670;SDS011;29267;50.906;7.248;2024-02-23T03:47:53;1.50;;;0.60;;
43670;SDS011;29267;50.906;7.248;2024-02-23T03:50:19;0.50;;;0.28;;
43670;SDS011;29267;50.906;7.248;2024-02-23T03:52:44;6.70;;;0.43;;
43670;SDS011;29267;50.906;7.248;2024-02-23T03:55:10;8.50;;;0.70;;
43670;SDS011;29267;50.906;7.248;2024-02-23T03:57:36;3.17;;;0.65;;
43670;SDS011;29267;50.906;7.248;2024-02-23T04:00:02;2.38;;;0.70;;
43670;SDS011;29267;50.906;7.248;2024-02-23T04:02:28;1.02;;;0.10;;
43670;SDS011;29267;50.906;7.248;2024-02-23T04:04:54;1.25;;;0.22;;
43670;SDS011;29267;50.906;7.248;2024-02-23T04:07:19;1.65;;;0.57;;
43670;SDS011;29267;50.906;7.248;2024-02-23T04:09:45;1.67;;;0.43;;
43670;SDS011;29267;50.906;7.248;2024-02-23T04:12:17;4.13;;;1.00;;
43670;SDS011;29267;50.906;7.248;2024-02-23T04:14:48;3.65;;;0.55;;
43670;SDS011;29267;50.906;7.248;2024-02-23T04:17:14;3.33;;;0.30;;
43670;SDS011;29267;50.906;7.248;2024-02-23T04:19:40;2.78;;;0.47;;
43670;SDS011;29267;50.906;7.248;2024-02-23T04:22:06;1.60;;;0.40;;
43670;SDS011;29267;50.906;7.248;2024-02-23T04:24:36;2.38;;;0.60;;
43670;SDS011;29267;50.906;7.248;2024-02-23T04:27:04;2.15;;;0.50;;
43670;SDS011;29267;50.906;7.248;2024-02-23T04:29:30;3.92;;;0.43;;
43670;SDS011;29267;50.906;7.248;2024-02-23T04:31:57;1.83;;;0.22;;
43670;SDS011;29267;50.906;7.248;2024-02-23T04:34:23;5.65;;;0.50;;
43670;SDS011;29267;50.906;7.248;2024-02-23T04:36:48;2.25;;;0.50;;
43670;SDS011;29267;50.906;7.248;2024-02-23T04:39:14;2.35;;;0.52;;
43670;SDS011;29267;50.906;7.248;2024-02-23T04:41:39;1.48;;;0.30;;
43670;SDS011;29267;50.906;7.248;2024-02-23T04:44:05;4.25;;;0.50;;
43670;SDS011;29267;50.906;7.248;2024-02-23T04:46:31;1.63;;;0.57;;
43670;SDS011;29267;50.906;7.248;2024-02-23T04:48:57;1.98;;;0.40;;
43670;SDS011;29267;50.906;7.248;2024-02-23T04:51:22;2.30;;;0.22;;
43670;SDS011;29267;50.906;7.248;2024-02-23T04:53:48;1.13;;;0.30;;
43670;SDS011;29267;50.906;7.248;2024-02-23T04:56:14;3.92;;;0.70;;
43670;SDS011;29267;50.906;7.248;2024-02-23T04:58:40;2.10;;;0.60;;
43670;SDS011;29267;50.906;7.248;2024-02-23T05:01:07;0.73;;;0.32;;
43670;SDS011;29267;50.906;7.248;2024-02-23T05:03:33;4.90;;;0.55;;
43670;SDS011;29267;50.906;7.248;2024-02-23T05:05:59;6.13;;;0.50;;
43670;SDS011;29267;50.906;7.248;2024-02-23T05:08:24;0.82;;;0.32;;
43670;SDS011;29267;50.906;7.248;2024-02-23T05:10:52;6.03;;;0.35;;
43670;SDS011;29267;50.906;7.248;2024-02-23T05:13:17;3.20;;;0.57;;
43670;SDS011;29267;50.906;7.248;2024-02-23T05:15:43;4.35;;;0.55;;
43670;SDS011;29267;50.906;7.248;2024-02-23T05:18:09;3.45;;;0.65;;
43670;SDS011;29267;50.906;7.248;2024-02-23T05:20:34;2.33;;;0.40;;
43670;SDS011;29267;50.906;7.248;2024-02-23T05:23:00;2.45;;;0.90;;
43670;SDS011;29267;50.906;7.248;2024-02-23T05:25:25;1.83;;;0.40;;
43670;SDS011;29267;50.906;7.248;2024-02-23T05:27:51;0.30;;;0.20;;
43670;SDS011;29267;50.906;7.248;2024-02-23T05:30:17;2.50;;;0.50;;
43670;SDS011;29267;50.906;7.248;2024-02-23T05:32:43;1.75;;;0.65;;
43670;SDS011;29267;50.906;7.248;2024-02-23T05:35:08;1.77;;;0.50;;
43670;SDS011;29267;50.906;7.248;2024-02-23T05:37:34;0.82;;;0.35;;
43670;SDS011;29267;50.906;7.248;2024-02-23T05:40:00;1.95;;;0.40;;
43670;SDS011;29267;50.906;7.248;2024-02-23T05:42:29;2.50;;;0.55;;
43670;SDS011;29267;50.906;7.248;2024-02-23T05:44:54;4.40;;;0.52;;
43670;SDS011;29267;50.906;7.248;2024-02-23T05:47:20;1.75;;;0.40;;
43670;SDS011;29267;50.906;7.248;2024-02-23T05:49:46;6.55;;;0.77;;
43670;SDS011;29267;50.906;7.248;2024-02-23T05:52:12;2.25;;;0.60;;
43670;SDS011;29267;50.906;7.248;2024-02-23T05:54:37;7.50;;;0.60;;
43670;SDS011;29267;50.906;7.248;2024-02-23T05:57:03;6.55;;;0.73;;
43670;SDS011;29267;50.906;7.248;2024-02-23T05:59:29;4.05;;;0.77;;
43670;SDS011;29267;50.906;7.248;2024-02-23T06:01:55;6.38;;;0.77;;
43670;SDS011;29267;50.906;7.248;2024-02-23T06:04:24;5.65;;;1.42;;
43670;SDS011;29267;50.906;7.248;2024-02-23T06:06:49;2.47;;;0.70;;
43670;SDS011;29267;50.906;7.248;2024-02-23T06:09:15;5.88;;;1.17;;
43670;SDS011;29267;50.906;7.248;2024-02-23T06:11:41;5.03;;;1.55;;
43670;SDS011;29267;50.906;7.248;2024-02-23T06:14:07;4.50;;;1.25;;
43670;SDS011;29267;50.906;7.248;2024-02-23T06:16:33;1.73;;;0.65;;
43670;SDS011;29267;50.906;7.248;2024-02-23T06:18:58;1.85;;;0.40;;
43670;SDS011;29267;50.906;7.248;2024-02-23T06:21:24;7.63;;;0.85;;
43670;SDS011;29267;50.906;7.248;2024-02-23T06:23:50;3.45;;;0.60;;
43670;SDS011;29267;50.906;7.248;2024-02-23T06:26:15;1.10;;;0.38;;
43670;SDS011;29267;50.906;7.248;2024-02-23T06:28:41;1.77;;;0.40;;
43670;SDS011;29267;50.906;7.248;2024-02-23T06:31:07;8.18;;;1.20;;
43670;SDS011;29267;50.906;7.248;2024-02-23T06:33:34;2.83;;;1.10;;
43670;SDS011;29267;50.906;7.248;2024-02-23T06:36:00;2.13;;;0.55;;
43670;SDS011;29267;50.906;7.248;2024-02-23T06:38:25;3.00;;;0.32;;
43670;SDS011;29267;50.906;7.248;2024-02-23T06:40:51;9.43;;;0.60;;
43670;SDS011;29267;50.906;7.248;2024-02-23T06:43:17;3.55;;;0.55;;
43670;SDS011;29267;50.906;7.248;2024-02-23T06:45:43;4.47;;;1.20;;
43670;SDS011;29267;50.906;7.248;2024-02-23T06:48:09;2.60;;;0.80;;
43670;SDS011;29267;50.906;7.248;2024-02-23T06:50:35;1.63;;;0.50;;
43670;SDS011;29267;50.906;7.248;2024-02-23T06:53:00;2.83;;;0.50;;
43670;SDS011;29267;50.906;7.248;2024-02-23T06:55:27;6.22;;;0.60;;
43670;SDS011;29267;50.906;7.248;2024-02-23T06:57:53;2.90;;;0.75;;
43670;SDS011;29267;50.906;7.248;2024-02-23T07:00:20;2.58;;;0.63;;
43670;SDS011;29267;50.906;7.248;2024-02-23T07:02:46;2.83;;;0.60;;
43670;SDS011;29267;50.906;7.248;2024-02-23T07:05:12;5.93;;;0.82;;
43670;SDS011;29267;50.906;7.248;2024-02-23T07:07:39;5.45;;;0.75;;
43670;SDS011;29267;50.906;7.248;2024-02-23T07:10:05;4.88;;;0.80;;
43670;SDS011;29267;50.906;7.248;2024-02-23T07:12:32;4.90;;;0.70;;
43670;SDS011;29267;50.906;7.248;2024-02-23T07:14:57;6.35;;;0.60;;
43670;SDS011;29267;50.906;7.248;2024-02-23T07:17:23;7.38;;;0.90;;
43670;SDS011;29267;50.906;7.248;2024-02-23T07:19:49;7.00;;;0.95;;
43670;SDS011;29267;50.906;7.248;2024-02-23T07:22:16;2.78;;;0.82;;
43670;SDS011;29267;50.906;7.248;2024-02-23T07:24:43;4.13;;;0.40;;
43670;SDS011;29267;50.906;7.248;2024-02-23T07:27:09;5.65;;;0.80;;
43670;SDS011;29267;50.906;7.248;2024-02-23T07:29:34;6.75;;;0.93;;
43670;SDS011;29267;50.906;7.248;2024-02-23T07:32:00;3.38;;;0.80;;
43670;SDS011;29267;50.906;7.248;2024-02-23T07:34:26;3.38;;;0.90;;
43670;SDS011;29267;50.906;7.248;2024-02-23T07:36:52;12.10;;;0.95;;
43670;SDS011;29267;50.906;7.248;2024-02-23T07:39:19;4.38;;;0.68;;
43670;SDS011;29267;50.906;7.248;2024-02-23T07:41:45;6.43;;;0.85;;
43670;SDS011;29267;50.906;7.248;2024-02-23T07:44:10;4.25;;;0.93;;
43670;SDS011;29267;50.906;7.248;2024-02-23T07:46:36;5.22;;;1.05;;
43670;SDS011;29267;50.906;7.248;2024-02-23T07:49:02;3.13;;;0.47;;
43670;SDS011;29267;50.906;7.248;2024-02-23T07:51:29;3.45;;;1.05;;
43670;SDS011;29267;50.906;7.248;2024-02-23T07:53:54;2.05;;;0.50;;
43670;SDS011;29267;50.906;7.248;2024-02-23T07:56:20;5.60;;;1.23;;
43670;SDS011;29267;50.906;7.248;2024-02-23T07:58:46;3.30;;;0.75;;
43670;SDS011;29267;50.906;7.248;2024-02-23T08:01:11;5.93;;;1.13;;
43670;SDS011;29267;50.906;7.248;2024-02-23T08:03:39;4.47;;;0.65;;
43670;SDS011;29267;50.906;7.248;2024-02-23T08:06:05;4.03;;;1.45;;
43670;SDS011;29267;50.906;7.248;2024-02-23T08:08:31;8.73;;;1.02;;
43670;SDS011;29267;50.906;7.248;2024-02-23T08:11:00;6.80;;;0.80;;
43670;SDS011;29267;50.906;7.248;2024-02-23T08:13:26;3.03;;;0.80;;
43670;SDS011;29267;50.906;7.248;2024-02-23T08:15:52;7.60;;;0.70;;
43670;SDS011;29267;50.906;7.248;2024-02-23T08:18:17;4.35;;;0.70;;
43670;SDS011;29267;50.906;7.248;2024-02-23T08:20:43;8.43;;;0.82;;
43670;SDS011;29267;50.906;7.248;2024-02-23T08:23:08;2.70;;;0.95;;
43670;SDS011;29267;50.906;7.248;2024-02-23T08:25:34;2.45;;;0.90;;
43670;SDS011;29267;50.906;7.248;2024-02-23T08:28:01;5.32;;;0.90;;
43670;SDS011;29267;50.906;7.248;2024-02-23T08:30:26;3.28;;;0.60;;
43670;SDS011;29267;50.906;7.248;2024-02-23T08:32:52;3.65;;;0.80;;
43670;SDS011;29267;50.906;7.248;2024-02-23T08:35:17;5.10;;;0.93;;
43670;SDS011;29267;50.906;7.248;2024-02-23T08:37:43;4.75;;;1.10;;
43670;SDS011;29267;50.906;7.248;2024-02-23T08:40:09;4.60;;;0.77;;
43670;SDS011;29267;50.906;7.248;2024-02-23T08:42:35;2.92;;;0.85;;
43670;SDS011;29267;50.906;7.248;2024-02-23T08:45:01;5.43;;;1.00;;
43670;SDS011;29267;50.906;7.248;2024-02-23T08:47:27;6.20;;;1.30;;
43670;SDS011;29267;50.906;7.248;2024-02-23T08:49:57;5.80;;;1.02;;
43670;SDS011;29267;50.906;7.248;2024-02-23T08:52:22;3.28;;;0.60;;
43670;SDS011;29267;50.906;7.248;2024-02-23T08:54:48;2.85;;;0.75;;
43670;SDS011;29267;50.906;7.248;2024-02-23T08:57:13;5.43;;;2.13;;
43670;SDS011;29267;50.906;7.248;2024-02-23T08:59:42;7.28;;;0.98;;
43670;SDS011;29267;50.906;7.248;2024-02-23T09:02:08;2.83;;;0.88;;
43670;SDS011;29267;50.906;7.248;2024-02-23T09:04:35;1.27;;;0.40;;
43670;SDS011;29267;50.906;7.248;2024-02-23T09:07:01;9.25;;;2.97;;
43670;SDS011;29267;50.906;7.248;2024-02-23T09:09:26;6.38;;;1.88;;
43670;SDS011;29267;50.906;7.248;2024-02-23T09:11:52;6.05;;;1.73;;
43670;SDS011;29267;50.906;7.248;2024-02-23T09:14:17;10.05;;;3.53;;
43670;SDS011;29267;50.906;7.248;2024-02-23T09:16:43;22.27;;;7.47;;
43670;SDS011;29267;50.906;7.248;2024-02-23T09:19:11;15.88;;;4.05;;
43670;SDS011;29267;50.906;7.248;2024-02-23T09:21:37;4.05;;;1.70;;
43670;SDS011;29267;50.906;7.248;2024-02-23T09:24:02;14.25;;;4.35;;
43670;SDS011;29267;50.906;7.248;2024-02-23T09:26:28;10.45;;;3.00;;
43670;SDS011;29267;50.906;7.248;2024-02-23T09:28:54;28.55;;;8.52;;
43670;SDS011;29267;50.906;7.248;2024-02-23T09:31:20;12.43;;;3.90;;
43670;SDS011;29267;50.906;7.248;2024-02-23T09:33:45;11.65;;;3.97;;
43670;SDS011;29267;50.906;7.248;2024-02-23T09:36:11;10.10;;;2.75;;
43670;SDS011;29267;50.906;7.248;2024-02-23T09:38:37;10.07;;;3.10;;
43670;SDS011;29267;50.906;7.248;2024-02-23T09:41:03;7.47;;;2.20;;
43670;SDS011;29267;50.906;7.248;2024-02-23T09:43:29;13.50;;;3.95;;
43670;SDS011;29267;50.906;7.248;2024-02-23T09:45:57;29.33;;;9.40;;
43670;SDS011;29267;50.906;7.248;2024-02-23T09:48:24;18.65;;;7.05;;
43670;SDS011;29267;50.906;7.248;2024-02-23T09:50:50;18.42;;;6.20;;
43670;SDS011;29267;50.906;7.248;2024-02-23T09:53:17;15.57;;;4.00;;
43670;SDS011;29267;50.906;7.248;2024-02-23T09:55:45;12.18;;;3.78;;
43670;SDS011;29267;50.906;7.248;2024-02-23T09:58:13;13.95;;;4.10;;
43670;SDS011;29267;50.906;7.248;2024-02-23T10:00:42;19.48;;;5.00;;
43670;SDS011;29267;50.906;7.248;2024-02-23T10:03:08;10.20;;;2.00;;
43670;SDS011;29267;50.906;7.248;2024-02-23T10:05:34;10.48;;;3.50;;
43670;SDS011;29267;50.906;7.248;2024-02-23T10:07:59;9.13;;;2.90;;
43670;SDS011;29267;50.906;7.248;2024-02-23T10:10:34;14.95;;;2.25;;
43670;SDS011;29267;50.906;7.248;2024-02-23T10:13:01;5.97;;;1.95;;
43670;SDS011;29267;50.906;7.248;2024-02-23T10:15:29;4.75;;;1.15;;
43670;SDS011;29267;50.906;7.248;2024-02-23T10:17:56;4.90;;;0.82;;
43670;SDS011;29267;50.906;7.248;2024-02-23T10:20:21;3.08;;;1.10;;
43670;SDS011;29267;50.906;7.248;2024-02-23T10:22:47;6.38;;;1.92;;
43670;SDS011;29267;50.906;7.248;2024-02-23T10:25:13;8.68;;;2.58;;
43670;SDS011;29267;50.906;7.248;2024-02-23T10:27:40;11.10;;;3.17;;
43670;SDS011;29267;50.906;7.248;2024-02-23T10:30:07;16.05;;;4.78;;
43670;SDS011;29267;50.906;7.248;2024-02-23T10:32:36;19.88;;;5.15;;
43670;SDS011;29267;50.906;7.248;2024-02-23T10:35:05;21.08;;;6.28;;
43670;SDS011;29267;50.906;7.248;2024-02-23T10:37:38;18.25;;;6.00;;
43670;SDS011;29267;50.906;7.248;2024-02-23T10:40:07;9.35;;;2.10;;
43670;SDS011;29267;50.906;7.248;2024-02-23T10:42:36;5.80;;;1.20;;
43670;SDS011;29267;50.906;7.248;2024-02-23T10:45:04;34.42;;;9.48;;
43670;SDS011;29267;50.906;7.248;2024-02-23T10:47:31;13.35;;;4.18;;
43670;SDS011;29267;50.906;7.248;2024-02-23T10:50:00;13.48;;;3.75;;
43670;SDS011;29267;50.906;7.248;2024-02-23T10:52:26;17.58;;;5.38;;
43670;SDS011;29267;50.906;7.248;2024-02-23T10:54:52;25.60;;;7.13;;
43670;SDS011;29267;50.906;7.248;2024-02-23T10:57:19;26.45;;;8.38;;
43670;SDS011;29267;50.906;7.248;2024-02-23T10:59:45;34.38;;;11.02;;
43670;SDS011;29267;50.906;7.248;2024-02-23T11:02:12;4.45;;;1.20;;
43670;SDS011;29267;50.906;7.248;2024-02-23T11:04:42;17.55;;;5.80;;
43670;SDS011;29267;50.906;7.248;2024-02-23T11:07:15;30.20;;;9.30;;
43670;SDS011;29267;50.906;7.248;2024-02-23T11:09:43;23.30;;;7.93;;
43670;SDS011;29267;50.906;7.248;2024-02-23T11:12:26;52.50;;;16.75;;
43670;SDS011;29267;50.906;7.248;2024-02-23T11:14:57;5.38;;;2.00;;
43670;SDS011;29267;50.906;7.248;2024-02-23T11:17:26;19.80;;;6.82;;
43670;SDS011;29267;50.906;7.248;2024-02-23T11:19:54;24.17;;;6.45;;
43670;SDS011;29267;50.906;7.248;2024-02-23T11:22:27;16.50;;;5.35;;
43670;SDS011;29267;50.906;7.248;2024-02-23T11:24:59;58.20;;;15.95;;
43670;SDS011;29267;50.906;7.248;2024-02-23T11:27:29;22.63;;;8.02;;
43670;SDS011;29267;50.906;7.248;2024-02-23T11:29:59;27.35;;;8.18;;
43670;SDS011;29267;50.906;7.248;2024-02-23T11:32:38;32.67;;;9.57;;
43670;SDS011;29267;50.906;7.248;2024-02-23T11:35:12;9.70;;;2.45;;
43670;SDS011;29267;50.906;7.248;2024-02-23T11:37:46;15.55;;;5.40;;
43670;SDS011;29267;50.906;7.248;2024-02-23T11:40:25;3.95;;;1.45;;
43670;SDS011;29267;50.906;7.248;2024-02-23T11:42:51;23.10;;;7.65;;
43670;SDS011;29267;50.906;7.248;2024-02-23T11:45:17;23.95;;;7.53;;
43670;SDS011;29267;50.906;7.248;2024-02-23T11:47:43;14.48;;;4.95;;
43670;SDS011;29267;50.906;7.248;2024-02-23T11:50:09;33.13;;;9.68;;
43670;SDS011;29267;50.906;7.248;2024-02-23T11:52:36;14.45;;;3.55;;
43670;SDS011;29267;50.906;7.248;2024-02-23T11:55:05;8.55;;;2.95;;
43670;SDS011;29267;50.906;7.248;2024-02-23T11:57:33;10.68;;;2.65;;
43670;SDS011;29267;50.906;7.248;2024-02-23T12:00:00;19.05;;;5.05;;
43670;SDS011;29267;50.906;7.248;2024-02-23T12:02:27;13.30;;;4.03;;
43670;SDS011;29267;50.906;7.248;2024-02-23T12:04:52;53.72;;;13.88;;
43670;SDS011;29267;50.906;7.248;2024-02-23T12:07:18;44.88;;;12.55;;
43670;SDS011;29267;50.906;7.248;2024-02-23T12:09:46;8.25;;;1.85;;
43670;SDS011;29267;50.906;7.248;2024-02-23T12:12:11;4.10;;;1.08;;
43670;SDS011;29267;50.906;7.248;2024-02-23T12:14:37;24.63;;;5.85;;
43670;SDS011;29267;50.906;7.248;2024-02-23T12:17:04;17.38;;;6.35;;
43670;SDS011;29267;50.906;7.248;2024-02-23T12:19:32;5.72;;;2.58;;
43670;SDS011;29267;50.906;7.248;2024-02-23T12:22:01;4.20;;;0.70;;
43670;SDS011;29267;50.906;7.248;2024-02-23T12:24:26;15.80;;;4.80;;
43670;SDS011;29267;50.906;7.248;2024-02-23T12:26:56;2.22;;;0.70;;
43670;SDS011;29267;50.906;7.248;2024-02-23T12:29:22;5.65;;;1.90;;
43670;SDS011;29267;50.906;7.248;2024-02-23T12:31:48;11.88;;;4.05;;
43670;SDS011;29267;50.906;7.248;2024-02-23T12:34:14;18.48;;;4.07;;
43670;SDS011;29267;50.906;7.248;2024-02-23T12:36:39;28.10;;;7.68;;
43670;SDS011;29267;50.906;7.248;2024-02-23T12:39:05;15.25;;;4.25;;
43670;SDS011;29267;50.906;7.248;2024-02-23T12:41:31;13.77;;;3.50;;
43670;SDS011;29267;50.906;7.248;2024-02-23T12:43:57;22.15;;;4.43;;
43670;SDS011;29267;50.906;7.248;2024-02-23T12:46:23;17.75;;;7.28;;
43670;SDS011;29267;50.906;7.248;2024-02-23T12:48:51;10.85;;;3.22;;
43670;SDS011;29267;50.906;7.248;2024-02-23T12:51:17;12.23;;;3.85;;
43670;SDS011;29267;50.906;7.248;2024-02-23T12:53:43;2.78;;;1.20;;
43670;SDS011;29267;50.906;7.248;2024-02-23T12:56:10;11.45;;;1.25;;
43670;SDS011;29267;50.906;7.248;2024-02-23T12:58:43;2.05;;;1.00;;
43670;SDS011;29267;50.906;7.248;2024-02-23T13:01:09;6.00;;;1.37;;
43670;SDS011;29267;50.906;7.248;2024-02-23T13:03:36;2.08;;;0.88;;
43670;SDS011;29267;50.906;7.248;2024-02-23T13:06:03;8.90;;;2.15;;
43670;SDS011;29267;50.906;7.248;2024-02-23T13:08:29;2.40;;;1.08;;
43670;SDS011;29267;50.906;7.248;2024-02-23T13:10:56;8.07;;;1.70;;
43670;SDS011;29267;50.906;7.248;2024-02-23T13:13:22;8.18;;;2.65;;
43670;SDS011;29267;50.906;7.248;2024-02-23T13:15:48;10.98;;;2.83;;
43670;SDS011;29267;50.906;7.248;2024-02-23T13:18:16;5.38;;;1.60;;
43670;SDS011;29267;50.906;7.248;2024-02-23T13:20:44;2.72;;;1.20;;
43670;SDS011;29267;50.906;7.248;2024-02-23T13:23:10;4.05;;;1.30;;
43670;SDS011;29267;50.906;7.248;2024-02-23T13:25:37;3.75;;;0.70;;
43670;SDS011;29267;50.906;7.248;2024-02-23T13:28:03;5.60;;;1.02;;
43670;SDS011;29267;50.906;7.248;2024-02-23T13:30:30;2.10;;;0.90;;
43670;SDS011;29267;50.906;7.248;2024-02-23T13:32:56;5.40;;;0.68;;
43670;SDS011;29267;50.906;7.248;2024-02-23T13:35:22;4.03;;;1.02;;
43670;SDS011;29267;50.906;7.248;2024-02-23T13:37:48;3.00;;;0.68;;
43670;SDS011;29267;50.906;7.248;2024-02-23T13:40:13;13.88;;;1.38;;
43670;SDS011;29267;50.906;7.248;2024-02-23T13:42:39;3.97;;;0.82;;
43670;SDS011;29267;50.906;7.248;2024-02-23T13:45:08;4.07;;;0.70;;
43670;SDS011;29267;50.906;7.248;2024-02-23T13:47:34;2.60;;;0.60;;
43670;SDS011;29267;50.906;7.248;2024-02-23T13:50:01;5.00;;;0.90;;
43670;SDS011;29267;50.906;7.248;2024-02-23T13:52:27;1.75;;;0.38;;
43670;SDS011;29267;50.906;7.248;2024-02-23T13:54:53;3.97;;;0.60;;
43670;SDS011;29267;50.906;7.248;2024-02-23T13:57:19;8.70;;;1.27;;
43670;SDS011;29267;50.906;7.248;2024-02-23T13:59:45;3.67;;;0.90;;
43670;SDS011;29267;50.906;7.248;2024-02-23T14:02:11;7.28;;;2.17;;
43670;SDS011;29267;50.906;7.248;2024-02-23T14:04:36;4.30;;;1.98;;
43670;SDS011;29267;50.906;7.248;2024-02-23T14:07:02;5.65;;;1.73;;
43670;SDS011;29267;50.906;7.248;2024-02-23T14:09:29;12.07;;;2.22;;
43670;SDS011;29267;50.906;7.248;2024-02-23T14:11:55;6.65;;;1.10;;
43670;SDS011;29267;50.906;7.248;2024-02-23T14:14:20;9.82;;;2.25;;
43670;SDS011;29267;50.906;7.248;2024-02-23T14:16:47;6.72;;;2.10;;
43670;SDS011;29267;50.906;7.248;2024-02-23T14:19:13;4.20;;;1.50;;
43670;SDS011;29267;50.906;7.248;2024-02-23T14:21:38;9.75;;;3.50;;
43670;SDS011;29267;50.906;7.248;2024-02-23T14:24:04;7.30;;;1.98;;
43670;SDS011;29267;50.906;7.248;2024-02-23T14:26:30;9.55;;;3.33;;
43670;SDS011;29267;50.906;7.248;2024-02-23T14:28:56;16.05;;;5.35;;
43670;SDS011;29267;50.906;7.248;2024-02-23T14:31:21;8.75;;;2.25;;
43670;SDS011;29267;50.906;7.248;2024-02-23T14:33:47;14.40;;;4.30;;
43670;SDS011;29267;50.906;7.248;2024-02-23T14:36:15;9.40;;;3.03;;
43670;SDS011;29267;50.906;7.248;2024-02-23T14:38:41;1.48;;;0.80;;
43670;SDS011;29267;50.906;7.248;2024-02-23T14:41:07;3.72;;;0.90;;